createdAt,value
2022-12-07T00:00:05.489Z,3.23
2022-12-07T00:01:05.481Z,3.23
2022-12-07T00:02:05.512Z,3.25
2022-12-07T00:03:05.557Z,3.23
2022-12-07T00:04:05.611Z,3.22
2022-12-07T00:05:05.446Z,3.28
2022-12-07T00:06:05.447Z,3.26
2022-12-07T00:07:05.422Z,3.28
2022-12-07T00:08:05.472Z,3.25
2022-12-07T00:09:05.403Z,3.20
2022-12-07T00:10:05.407Z,3.20
2022-12-07T00:11:05.366Z,3.23
2022-12-07T00:12:05.376Z,3.20
2022-12-07T00:13:05.363Z,3.22
2022-12-07T00:14:05.342Z,3.23
2022-12-07T00:15:05.331Z,3.20
2022-12-07T00:16:05.366Z,3.20
2022-12-07T00:17:05.327Z,3.22
2022-12-07T00:18:05.298Z,3.22
2022-12-07T00:19:05.296Z,3.22
2022-12-07T00:20:05.278Z,3.23
2022-12-07T00:21:05.257Z,3.22
2022-12-07T00:22:05.241Z,3.23
2022-12-07T00:23:05.254Z,3.23
2022-12-07T00:24:05.234Z,3.25
2022-12-07T00:25:05.230Z,3.22
2022-12-07T00:26:05.215Z,3.25
2022-12-07T00:27:05.194Z,3.20
2022-12-07T00:28:05.179Z,3.23
2022-12-07T00:29:05.185Z,3.17
2022-12-07T00:30:05.206Z,3.15
2022-12-07T00:31:05.175Z,3.15
2022-12-07T00:32:05.259Z,3.08
2022-12-07T00:33:05.161Z,3.05
2022-12-07T00:34:05.121Z,3.04
2022-12-07T00:35:05.146Z,3.02
2022-12-07T00:36:05.101Z,2.99
2022-12-07T00:37:05.108Z,2.98
2022-12-07T00:38:05.090Z,2.97
2022-12-07T00:39:05.085Z,2.97
2022-12-07T00:40:05.095Z,2.95
2022-12-07T00:41:05.060Z,2.92
2022-12-07T00:42:05.077Z,2.94
2022-12-07T00:43:05.039Z,2.92
2022-12-07T00:44:05.015Z,2.92
2022-12-07T00:45:05.023Z,2.92
2022-12-07T00:46:05.029Z,2.94
2022-12-07T00:47:04.998Z,2.94
2022-12-07T00:48:04.982Z,2.95
2022-12-07T00:49:04.976Z,2.98
2022-12-07T00:50:04.960Z,2.94
2022-12-07T00:51:04.957Z,2.92
2022-12-07T00:52:04.946Z,2.92
2022-12-07T00:53:04.921Z,2.89
2022-12-07T00:54:04.924Z,2.89
2022-12-07T00:55:04.963Z,2.86
2022-12-07T00:56:04.925Z,2.84
2022-12-07T00:57:04.887Z,2.86
2022-12-07T00:58:04.883Z,2.86
2022-12-07T00:59:04.862Z,2.86
2022-12-07T01:00:04.915Z,2.84
2022-12-07T01:01:04.929Z,2.86
2022-12-07T01:02:04.825Z,2.86
2022-12-07T01:03:04.855Z,2.84
2022-12-07T01:04:04.824Z,2.83
2022-12-07T01:05:04.820Z,2.84
2022-12-07T01:06:04.804Z,2.84
2022-12-07T01:07:04.785Z,2.80
2022-12-07T01:08:04.796Z,2.81
2022-12-07T01:09:04.773Z,2.79
2022-12-07T01:10:04.990Z,2.79
2022-12-07T01:11:04.753Z,2.81
2022-12-07T01:12:04.735Z,2.77
2022-12-07T01:13:04.736Z,2.74
2022-12-07T01:14:04.711Z,2.74
2022-12-07T01:15:04.719Z,2.74
2022-12-07T01:16:04.689Z,2.73
2022-12-07T01:17:04.754Z,2.74
2022-12-07T01:18:04.696Z,2.73
2022-12-07T01:19:04.698Z,2.71
2022-12-07T01:20:04.955Z,2.71
2022-12-07T01:21:04.632Z,2.68
2022-12-07T01:22:04.629Z,2.69
2022-12-07T01:23:04.615Z,2.68
2022-12-07T01:24:04.636Z,2.68
2022-12-07T01:25:04.629Z,2.68
2022-12-07T01:26:04.583Z,2.69
2022-12-07T01:27:04.578Z,2.68
2022-12-07T01:28:04.560Z,2.68
2022-12-07T01:29:04.639Z,2.73
2022-12-07T01:30:04.714Z,2.69
2022-12-07T01:31:04.602Z,2.69
2022-12-07T01:32:04.514Z,2.68
2022-12-07T01:33:04.524Z,2.68
2022-12-07T01:34:04.501Z,2.71
2022-12-07T01:35:04.541Z,2.68
2022-12-07T01:36:04.500Z,2.68
2022-12-07T01:37:04.468Z,2.71
2022-12-07T01:38:04.459Z,2.71
2022-12-07T01:39:04.468Z,2.73
2022-12-07T01:40:04.678Z,2.74
2022-12-07T01:41:04.431Z,2.71
2022-12-07T01:42:04.506Z,2.71
2022-12-07T01:43:04.416Z,2.76
2022-12-07T01:44:04.392Z,2.71
2022-12-07T01:45:04.400Z,2.69
2022-12-07T01:46:04.409Z,2.68
2022-12-07T01:47:04.367Z,2.69
2022-12-07T01:48:04.363Z,2.69
2022-12-07T01:49:04.362Z,2.71
2022-12-07T01:50:04.645Z,2.68
2022-12-07T01:51:04.326Z,2.71
2022-12-07T01:52:04.318Z,2.69
2022-12-07T01:53:04.321Z,2.73
2022-12-07T01:54:04.305Z,2.74
2022-12-07T01:55:04.299Z,2.73
2022-12-07T01:56:04.284Z,2.73
2022-12-07T01:57:04.271Z,2.76
2022-12-07T01:58:04.271Z,2.76
2022-12-07T01:59:04.241Z,2.74
2022-12-07T02:00:04.582Z,2.71
2022-12-07T02:01:04.243Z,2.74
2022-12-07T02:02:04.281Z,2.74
2022-12-07T02:03:04.338Z,2.76
2022-12-07T02:04:04.198Z,2.77
2022-12-07T02:05:04.201Z,2.74
2022-12-07T02:06:04.193Z,2.77
2022-12-07T02:07:04.170Z,2.76
2022-12-07T02:08:04.244Z,2.77
2022-12-07T02:09:04.152Z,2.76
2022-12-07T02:10:04.323Z,2.76
2022-12-07T02:11:04.124Z,2.76
2022-12-07T02:12:04.115Z,2.76
2022-12-07T02:13:04.098Z,2.77
2022-12-07T02:14:04.123Z,2.76
2022-12-07T02:15:04.088Z,2.74
2022-12-07T02:16:04.214Z,2.73
2022-12-07T02:17:04.057Z,2.76
2022-12-07T02:18:04.067Z,2.76
2022-12-07T02:19:04.051Z,2.74
2022-12-07T02:20:04.258Z,2.74
2022-12-07T02:21:04.047Z,2.73
2022-12-07T02:22:04.010Z,2.73
2022-12-07T02:23:04.005Z,2.69
2022-12-07T02:24:04.015Z,2.68
2022-12-07T02:25:03.982Z,2.69
2022-12-07T02:26:03.990Z,2.73
2022-12-07T02:27:03.964Z,2.69
2022-12-07T02:28:03.948Z,2.71
2022-12-07T02:29:03.931Z,2.68
2022-12-07T02:30:04.362Z,2.69
2022-12-07T02:31:04.067Z,2.68
2022-12-07T02:32:03.911Z,2.69
2022-12-07T02:33:03.936Z,2.66
2022-12-07T02:34:03.892Z,2.65
2022-12-07T02:35:03.878Z,2.65
2022-12-07T02:36:03.890Z,2.63
2022-12-07T02:37:03.866Z,2.62
2022-12-07T02:38:03.848Z,2.56
2022-12-07T02:39:03.856Z,2.51
2022-12-07T02:40:04.028Z,2.50
2022-12-07T02:41:03.828Z,2.48
2022-12-07T02:42:03.811Z,2.45
2022-12-07T02:43:03.797Z,2.43
2022-12-07T02:44:03.795Z,2.43
2022-12-07T02:45:03.791Z,2.44
2022-12-07T02:46:03.862Z,2.38
2022-12-07T02:47:03.761Z,2.37
2022-12-07T02:48:03.751Z,2.36
2022-12-07T02:49:03.740Z,2.33
2022-12-07T02:50:03.992Z,2.29
2022-12-07T02:51:03.752Z,2.30
2022-12-07T02:52:03.717Z,2.30
2022-12-07T02:53:03.697Z,2.27
2022-12-07T02:54:03.691Z,2.27
2022-12-07T02:55:03.668Z,2.25
2022-12-07T02:56:03.687Z,2.27
2022-12-07T02:57:03.651Z,2.26
2022-12-07T02:58:03.641Z,2.27
2022-12-07T02:59:03.664Z,2.25
2022-12-07T03:00:03.954Z,2.22
2022-12-07T03:01:03.662Z,2.19
2022-12-07T03:02:03.696Z,2.18
2022-12-07T03:03:03.655Z,2.18
2022-12-07T03:04:03.580Z,2.15
2022-12-07T03:05:03.578Z,2.12
2022-12-07T03:06:03.572Z,2.12
2022-12-07T03:07:03.557Z,2.08
2022-12-07T03:08:03.587Z,2.11
2022-12-07T03:09:03.521Z,2.08
2022-12-07T03:10:03.939Z,2.09
2022-12-07T03:11:03.513Z,2.08
2022-12-07T03:12:03.507Z,2.04
2022-12-07T03:13:03.493Z,2.02
2022-12-07T03:14:03.488Z,2.04
2022-12-07T03:15:03.467Z,2.04
2022-12-07T03:16:03.574Z,2.04
2022-12-07T03:17:03.453Z,2.04
2022-12-07T03:18:03.448Z,2.02
2022-12-07T03:19:03.419Z,2.04
2022-12-07T03:20:03.714Z,2.04
2022-12-07T03:21:03.425Z,2.02
2022-12-07T03:22:03.401Z,1.98
2022-12-07T03:23:03.391Z,1.95
2022-12-07T03:24:03.404Z,1.98
2022-12-07T03:25:03.381Z,1.93
2022-12-07T03:26:03.377Z,1.98
2022-12-07T03:27:03.364Z,1.95
2022-12-07T03:28:03.334Z,1.93
2022-12-07T03:29:03.330Z,1.98
2022-12-07T03:30:03.556Z,1.95
2022-12-07T03:31:03.354Z,1.93
2022-12-07T03:32:03.295Z,1.92
2022-12-07T03:33:03.286Z,1.89
2022-12-07T03:34:03.279Z,1.86
2022-12-07T03:35:03.270Z,1.83
2022-12-07T03:36:03.319Z,1.86
2022-12-07T03:37:03.243Z,1.85
2022-12-07T03:38:03.236Z,1.81
2022-12-07T03:39:03.228Z,1.83
2022-12-07T03:40:03.638Z,1.81
2022-12-07T03:41:03.218Z,1.79
2022-12-07T03:42:03.202Z,1.77
2022-12-07T03:43:03.186Z,1.77
2022-12-07T03:44:03.189Z,1.72
2022-12-07T03:45:03.171Z,1.72
2022-12-07T03:46:03.214Z,1.71
2022-12-07T03:47:03.202Z,1.75
2022-12-07T03:48:03.138Z,1.75
2022-12-07T03:49:03.132Z,1.77
2022-12-07T03:50:03.335Z,1.81
2022-12-07T03:51:03.189Z,1.77
2022-12-07T03:52:03.091Z,1.79
2022-12-07T03:53:03.082Z,1.81
2022-12-07T03:54:03.074Z,1.81
2022-12-07T03:55:03.065Z,1.81
2022-12-07T03:56:03.077Z,1.75
2022-12-07T03:57:03.042Z,1.75
2022-12-07T03:58:03.035Z,1.75
2022-12-07T03:59:03.021Z,1.72
2022-12-07T04:00:03.278Z,1.68
2022-12-07T04:01:03.030Z,1.68
2022-12-07T04:02:03.106Z,1.70
2022-12-07T04:03:03.091Z,1.72
2022-12-07T04:04:02.979Z,1.72
2022-12-07T04:05:02.954Z,1.74
2022-12-07T04:06:02.958Z,1.74
2022-12-07T04:07:02.942Z,1.74
2022-12-07T04:08:02.997Z,1.75
2022-12-07T04:09:02.933Z,1.77
2022-12-07T04:10:03.182Z,1.79
2022-12-07T04:11:02.918Z,1.75
2022-12-07T04:12:02.888Z,1.79
2022-12-07T04:13:02.870Z,1.77
2022-12-07T04:14:02.865Z,1.81
2022-12-07T04:15:02.861Z,1.83
2022-12-07T04:16:02.913Z,1.81
2022-12-07T04:17:02.836Z,1.79
2022-12-07T04:18:02.827Z,1.77
2022-12-07T04:19:02.823Z,1.83
2022-12-07T04:20:03.025Z,1.82
2022-12-07T04:21:02.806Z,1.85
2022-12-07T04:22:02.798Z,1.81
2022-12-07T04:23:02.776Z,1.82
2022-12-07T04:24:02.774Z,1.81
2022-12-07T04:25:02.752Z,1.81
2022-12-07T04:26:02.771Z,1.74
2022-12-07T04:27:02.740Z,1.72
2022-12-07T04:28:02.742Z,1.75
2022-12-07T04:29:07.401Z,1.74
2022-12-07T04:30:03.143Z,1.70
2022-12-07T04:31:02.734Z,1.71
2022-12-07T04:32:02.703Z,1.74
2022-12-07T04:33:02.686Z,1.74
2022-12-07T04:34:02.664Z,1.74
2022-12-07T04:35:02.653Z,1.71
2022-12-07T04:36:02.662Z,1.72
2022-12-07T04:37:02.637Z,1.71
2022-12-07T04:38:02.631Z,1.72
2022-12-07T04:39:02.616Z,1.75
2022-12-07T04:40:02.923Z,1.75
2022-12-07T04:41:02.603Z,1.75
2022-12-07T04:42:02.583Z,1.75
2022-12-07T04:43:02.568Z,1.77
2022-12-07T04:44:02.575Z,1.79
2022-12-07T04:45:02.560Z,1.79
2022-12-07T04:46:02.560Z,1.75
2022-12-07T04:47:02.578Z,1.79
2022-12-07T04:48:02.538Z,1.74
2022-12-07T04:49:02.523Z,1.75
2022-12-07T04:50:02.980Z,1.79
2022-12-07T04:51:02.516Z,1.81
2022-12-07T04:52:02.507Z,1.79
2022-12-07T04:53:02.496Z,1.72
2022-12-07T04:54:02.467Z,1.71
2022-12-07T04:55:02.453Z,1.70
2022-12-07T04:56:02.456Z,1.68
2022-12-07T04:57:02.453Z,1.68
2022-12-07T04:58:02.434Z,1.72
2022-12-07T04:59:02.403Z,1.72
2022-12-07T05:00:02.805Z,1.71
2022-12-07T05:01:02.518Z,1.72
2022-12-07T05:02:02.460Z,1.72
2022-12-07T05:03:02.373Z,1.74
2022-12-07T05:04:02.399Z,1.74
2022-12-07T05:05:02.355Z,1.75
2022-12-07T05:06:02.357Z,1.81
2022-12-07T05:07:02.331Z,1.81
2022-12-07T05:08:02.410Z,1.85
2022-12-07T05:09:02.306Z,1.86
2022-12-07T05:10:02.828Z,1.86
2022-12-07T05:11:02.298Z,1.88
2022-12-07T05:12:02.286Z,1.90
2022-12-07T05:13:02.305Z,1.93
2022-12-07T05:14:02.270Z,1.95
2022-12-07T05:15:02.250Z,1.98
2022-12-07T05:16:02.288Z,1.93
2022-12-07T05:17:02.231Z,1.92
2022-12-07T05:18:02.228Z,1.98
2022-12-07T05:19:02.212Z,1.95
2022-12-07T05:20:02.649Z,1.93
2022-12-07T05:21:02.233Z,1.95
2022-12-07T05:22:02.221Z,1.95
2022-12-07T05:23:02.174Z,1.98
2022-12-07T05:24:02.183Z,2.01
2022-12-07T05:25:02.143Z,2.00
2022-12-07T05:26:02.176Z,2.02
2022-12-07T05:27:02.131Z,2.01
2022-12-07T05:28:02.120Z,2.05
2022-12-07T05:29:02.103Z,2.04
2022-12-07T05:30:02.452Z,2.05
2022-12-07T05:31:02.112Z,2.07
2022-12-07T05:32:02.137Z,2.08
2022-12-07T05:33:02.059Z,2.08
2022-12-07T05:34:08.145Z,2.05
2022-12-07T05:35:02.032Z,2.08
2022-12-07T05:36:02.767Z,2.05
2022-12-07T05:37:02.021Z,2.11
2022-12-07T05:38:02.013Z,2.12
2022-12-07T05:39:02.021Z,2.15
2022-12-07T05:40:02.445Z,2.19
2022-12-07T05:41:02.055Z,2.20
2022-12-07T05:42:01.968Z,2.22
2022-12-07T05:43:04.728Z,2.20
2022-12-07T05:44:01.953Z,2.20
2022-12-07T05:45:01.942Z,2.22
2022-12-07T05:46:02.009Z,2.23
2022-12-07T05:47:01.914Z,2.25
2022-12-07T05:48:01.906Z,2.27
2022-12-07T05:49:01.903Z,2.30
2022-12-07T05:50:02.267Z,2.29
2022-12-07T05:51:01.898Z,2.30
2022-12-07T05:52:01.903Z,2.30
2022-12-07T05:53:01.846Z,2.36
2022-12-07T05:54:01.864Z,2.32
2022-12-07T05:55:01.833Z,2.37
2022-12-07T05:56:01.840Z,2.37
2022-12-07T05:57:01.812Z,2.38
2022-12-07T05:58:01.851Z,2.37
2022-12-07T05:59:01.793Z,2.38
2022-12-07T06:00:02.132Z,2.37
2022-12-07T06:01:01.791Z,2.41
2022-12-07T06:02:01.922Z,2.43
2022-12-07T06:03:01.887Z,2.43
2022-12-07T06:04:01.783Z,2.44
2022-12-07T06:05:01.764Z,2.44
2022-12-07T06:06:01.949Z,2.47
2022-12-07T06:07:01.749Z,2.47
2022-12-07T06:08:05.858Z,2.47
2022-12-07T06:09:01.704Z,2.55
2022-12-07T06:10:01.981Z,2.51
2022-12-07T06:11:01.693Z,2.56
2022-12-07T06:12:01.657Z,2.58
2022-12-07T06:13:01.644Z,2.58
2022-12-07T06:14:01.625Z,2.56
2022-12-07T06:15:01.627Z,2.58
2022-12-07T06:16:01.636Z,2.56
2022-12-07T06:17:01.678Z,2.59
2022-12-07T06:18:01.584Z,2.58
2022-12-07T06:19:01.595Z,2.61
2022-12-07T06:20:02.016Z,2.58
2022-12-07T06:21:01.614Z,2.59
2022-12-07T06:22:01.555Z,2.61
2022-12-07T06:23:01.558Z,2.59
2022-12-07T06:24:01.529Z,2.58
2022-12-07T06:25:06.980Z,2.59
2022-12-07T06:26:01.520Z,2.59
2022-12-07T06:27:01.518Z,2.61
2022-12-07T06:28:01.518Z,2.62
2022-12-07T06:29:01.491Z,2.61
2022-12-07T06:30:01.942Z,2.62
2022-12-07T06:31:01.514Z,2.63
2022-12-07T06:32:01.515Z,2.63
2022-12-07T06:33:01.408Z,2.65
2022-12-07T06:34:01.365Z,2.65
2022-12-07T06:35:01.423Z,2.68
2022-12-07T06:36:01.414Z,2.68
2022-12-07T06:37:01.490Z,2.65
2022-12-07T06:38:01.345Z,2.65
2022-12-07T06:39:01.374Z,2.69
2022-12-07T06:40:01.760Z,2.69
2022-12-07T06:41:01.361Z,2.69
2022-12-07T06:42:01.285Z,2.69
2022-12-07T06:43:01.303Z,2.69
2022-12-07T06:44:01.274Z,2.69
2022-12-07T06:45:01.327Z,2.69
2022-12-07T06:46:01.356Z,2.71
2022-12-07T06:47:39.016Z,2.68
2022-12-07T06:48:01.239Z,2.74
2022-12-07T06:49:01.214Z,2.76
2022-12-07T06:50:01.703Z,2.77
2022-12-07T06:51:01.231Z,2.79
2022-12-07T06:52:01.352Z,2.80
2022-12-07T06:53:01.209Z,2.81
2022-12-07T06:54:01.187Z,2.84
2022-12-07T06:55:01.165Z,2.86
2022-12-07T06:56:01.150Z,2.89
2022-12-07T06:57:01.150Z,2.92
2022-12-07T06:58:01.116Z,2.94
2022-12-07T06:59:01.113Z,2.97
2022-12-07T07:00:01.673Z,2.97
2022-12-07T07:01:01.288Z,2.98
2022-12-07T07:02:01.151Z,3.01
2022-12-07T07:03:03.089Z,2.99
2022-12-07T07:04:01.097Z,3.02
2022-12-07T07:05:01.237Z,3.01
2022-12-07T07:06:01.407Z,3.05
2022-12-07T07:07:01.141Z,3.08
2022-12-07T07:09:01.084Z,3.07
2022-12-07T07:10:01.340Z,3.12
2022-12-07T07:11:01.044Z,3.13
2022-12-07T07:12:00.983Z,3.15
2022-12-07T07:13:00.975Z,3.15
2022-12-07T07:14:00.950Z,3.17
2022-12-07T07:15:00.945Z,3.16
2022-12-07T07:16:00.941Z,3.19
2022-12-07T07:17:00.958Z,3.17
2022-12-07T07:18:06.164Z,3.20
2022-12-07T07:19:00.927Z,3.19
2022-12-07T07:20:01.303Z,3.23
2022-12-07T07:21:01.045Z,3.26
2022-12-07T07:22:00.870Z,3.26
2022-12-07T07:23:00.858Z,3.26
2022-12-07T07:24:00.848Z,3.28
2022-12-07T07:25:00.856Z,3.31
2022-12-07T07:26:00.873Z,3.31
2022-12-07T07:27:00.825Z,3.34
2022-12-07T07:28:00.803Z,3.35
2022-12-07T07:29:00.817Z,3.37
2022-12-07T07:30:01.097Z,3.42
2022-12-07T07:31:00.870Z,3.42
2022-12-07T07:32:06.414Z,3.44
2022-12-07T07:33:00.770Z,3.44
2022-12-07T07:34:00.738Z,3.49
2022-12-07T07:35:00.757Z,3.49
2022-12-07T07:36:00.742Z,3.52
2022-12-07T07:37:00.739Z,3.52
2022-12-07T07:38:00.697Z,3.54
2022-12-07T07:39:00.716Z,3.57
2022-12-07T07:40:01.150Z,3.56
2022-12-07T07:41:00.696Z,3.56
2022-12-07T07:42:00.692Z,3.54
2022-12-07T07:43:00.664Z,3.57
2022-12-07T07:44:00.666Z,3.59
2022-12-07T07:45:00.642Z,3.57
2022-12-07T07:46:00.790Z,3.62
2022-12-07T07:47:00.650Z,3.59
2022-12-07T07:48:00.605Z,3.62
2022-12-07T07:49:00.600Z,3.64
2022-12-07T07:50:00.933Z,3.67
2022-12-07T07:51:00.606Z,3.67
2022-12-07T07:52:00.567Z,3.70
2022-12-07T07:53:00.556Z,3.67
2022-12-07T07:54:00.561Z,3.70
2022-12-07T07:55:00.588Z,3.70
2022-12-07T07:56:00.550Z,3.70
2022-12-07T07:57:00.514Z,3.70
2022-12-07T07:58:00.514Z,3.71
2022-12-07T07:59:00.599Z,3.74
2022-12-07T08:00:00.963Z,3.74
2022-12-07T08:01:00.597Z,3.74
2022-12-07T08:02:00.593Z,3.72
2022-12-07T08:03:00.457Z,3.74
2022-12-07T08:04:00.457Z,3.78
2022-12-07T08:05:00.519Z,3.77
2022-12-07T08:06:00.434Z,3.77
2022-12-07T08:07:00.418Z,3.74
2022-12-07T08:08:00.504Z,3.75
2022-12-07T08:09:00.393Z,3.74
2022-12-07T08:10:01.220Z,3.71
2022-12-07T08:11:00.391Z,3.71
2022-12-07T08:12:00.554Z,3.71
2022-12-07T08:13:00.360Z,3.72
2022-12-07T08:14:00.427Z,3.71
2022-12-07T08:15:00.337Z,3.70
2022-12-07T08:16:00.500Z,3.71
2022-12-07T08:17:00.309Z,3.75
2022-12-07T08:18:00.305Z,3.74
2022-12-07T08:19:00.303Z,3.72
2022-12-07T08:20:01.103Z,3.74
2022-12-07T08:21:00.287Z,3.77
2022-12-07T08:22:00.308Z,3.78
2022-12-07T08:23:00.249Z,3.80
2022-12-07T08:24:00.358Z,3.81
2022-12-07T08:25:00.225Z,3.82
2022-12-07T08:26:00.361Z,3.81
2022-12-07T08:27:00.230Z,3.82
2022-12-07T08:28:00.326Z,3.84
2022-12-07T08:29:00.191Z,3.86
2022-12-07T08:30:00.867Z,3.82
2022-12-07T08:31:00.238Z,3.86
2022-12-07T08:32:01.013Z,3.90
2022-12-07T08:33:00.153Z,3.89
2022-12-07T08:34:00.368Z,3.90
2022-12-07T08:35:00.129Z,3.93
2022-12-07T08:36:00.173Z,3.93
2022-12-07T08:37:00.108Z,3.96
2022-12-07T08:38:00.147Z,3.95
2022-12-07T08:40:00.416Z,3.93
2022-12-07T08:41:00.100Z,3.95
2022-12-07T08:42:00.193Z,3.98
2022-12-07T08:43:00.073Z,3.95
2022-12-07T08:44:00.061Z,3.99
2022-12-07T08:45:00.018Z,3.98
2022-12-07T08:46:00.166Z,4.00
2022-12-07T08:47:00.005Z,4.02
2022-12-07T08:48:00.035Z,4.02
2022-12-07T08:48:59.984Z,4.06
2022-12-07T08:50:00.180Z,4.04
2022-12-07T08:50:59.972Z,4.02
2022-12-07T08:51:59.986Z,4.07
2022-12-07T08:52:59.941Z,4.07
2022-12-07T08:53:59.928Z,4.07
2022-12-07T08:54:59.959Z,4.10
2022-12-07T08:55:59.905Z,4.11
2022-12-07T08:57:00.240Z,4.11
2022-12-07T08:57:59.882Z,4.13
2022-12-07T08:58:59.908Z,4.16
2022-12-07T09:00:00.188Z,4.17
2022-12-07T09:00:59.871Z,4.17
2022-12-07T09:01:59.962Z,4.18
2022-12-07T09:02:59.845Z,4.17
2022-12-07T09:03:59.815Z,4.20
2022-12-07T09:04:59.813Z,4.20
2022-12-07T09:05:59.952Z,4.24
2022-12-07T09:06:59.889Z,4.25
2022-12-07T09:07:59.894Z,4.26
2022-12-07T09:08:59.782Z,4.21
2022-12-07T09:10:00.036Z,4.24
2022-12-07T09:10:59.760Z,4.24
2022-12-07T09:11:59.747Z,4.24
2022-12-07T09:12:59.731Z,4.28
2022-12-07T09:13:59.774Z,4.25
2022-12-07T09:14:59.722Z,4.24
2022-12-07T09:15:59.770Z,4.26
2022-12-07T09:16:59.706Z,4.26
2022-12-07T09:17:59.685Z,4.26
2022-12-07T09:18:59.709Z,4.26
2022-12-07T09:19:59.901Z,4.34
2022-12-07T09:20:59.655Z,4.43
2022-12-07T09:21:59.629Z,4.46
2022-12-07T09:22:59.622Z,4.46
2022-12-07T09:23:59.651Z,4.42
2022-12-07T09:24:59.632Z,4.43
2022-12-07T09:25:59.606Z,4.39
2022-12-07T09:26:59.631Z,4.39
2022-12-07T09:27:59.587Z,4.34
2022-12-07T09:28:59.582Z,4.29
2022-12-07T09:29:59.809Z,4.26
2022-12-07T09:31:22.612Z,4.18
2022-12-07T09:31:59.632Z,4.13
2022-12-07T09:32:59.527Z,4.10
2022-12-07T09:34:00.309Z,4.08
2022-12-07T09:34:59.496Z,4.04
2022-12-07T09:35:59.533Z,4.06
2022-12-07T09:36:59.477Z,4.07
2022-12-07T09:37:59.459Z,4.07
2022-12-07T09:38:59.482Z,4.10
2022-12-07T09:39:59.467Z,4.07
2022-12-07T09:40:59.448Z,4.07
2022-12-07T09:41:59.421Z,4.10
2022-12-07T09:42:59.498Z,4.07
2022-12-07T09:43:59.405Z,4.07
2022-12-07T09:44:59.433Z,4.08
2022-12-07T09:45:59.440Z,4.08
2022-12-07T09:46:59.467Z,4.06
2022-12-07T09:47:59.359Z,4.06
2022-12-07T09:48:59.373Z,4.07
2022-12-07T09:49:59.554Z,4.02
2022-12-07T09:50:59.335Z,4.00
2022-12-07T09:51:59.313Z,3.98
2022-12-07T09:52:59.347Z,3.98
2022-12-07T09:53:59.292Z,4.02
2022-12-07T09:54:59.287Z,4.02
2022-12-07T09:55:59.284Z,4.02
2022-12-07T09:56:59.270Z,4.00
2022-12-07T09:57:59.249Z,4.00
2022-12-07T09:58:59.241Z,3.98
2022-12-07T09:59:59.234Z,3.98
2022-12-07T10:00:59.238Z,3.98
2022-12-07T10:01:59.249Z,3.95
2022-12-07T10:02:59.212Z,3.93
2022-12-07T10:03:59.220Z,3.95
2022-12-07T10:04:59.365Z,3.95
2022-12-07T10:05:59.184Z,3.93
2022-12-07T10:06:59.157Z,3.92
2022-12-07T10:07:59.173Z,3.90
2022-12-07T10:08:59.159Z,3.90
2022-12-07T10:09:59.129Z,3.90
2022-12-07T10:10:59.174Z,3.86
2022-12-07T10:11:59.124Z,3.86
2022-12-07T10:12:59.104Z,3.86
2022-12-07T10:13:59.086Z,3.86
2022-12-07T10:15:07.237Z,3.88
2022-12-07T10:16:05.176Z,3.88
2022-12-07T10:16:59.070Z,3.92
2022-12-07T10:17:59.059Z,3.92
2022-12-07T10:18:59.077Z,3.96
2022-12-07T10:19:59.035Z,4.04
2022-12-07T10:20:59.049Z,4.06
2022-12-07T10:21:59.031Z,4.08
2022-12-07T10:22:58.994Z,4.07
2022-12-07T10:23:58.987Z,4.00
2022-12-07T10:24:59.036Z,3.95
2022-12-07T10:25:58.990Z,3.96
2022-12-07T10:26:58.965Z,3.96
2022-12-07T10:27:58.996Z,3.98
2022-12-07T10:28:58.954Z,4.04
2022-12-07T10:29:58.916Z,4.04
2022-12-07T10:30:58.989Z,4.08
2022-12-07T10:31:58.909Z,4.08
2022-12-07T10:32:58.883Z,4.13
2022-12-07T10:33:58.878Z,4.17
2022-12-07T10:34:58.888Z,4.24
2022-12-07T10:35:58.876Z,4.28
2022-12-07T10:36:58.855Z,4.28
2022-12-07T10:37:58.892Z,4.25
2022-12-07T10:38:58.832Z,4.20
2022-12-07T10:39:58.831Z,4.17
2022-12-07T10:40:58.809Z,4.14
2022-12-07T10:41:58.843Z,4.11
2022-12-07T10:42:58.790Z,4.13
2022-12-07T10:43:58.789Z,4.07
2022-12-07T10:44:58.905Z,4.04
2022-12-07T10:46:03.635Z,4.06
2022-12-07T10:46:58.859Z,4.06
2022-12-07T10:47:58.749Z,4.08
2022-12-07T10:48:58.726Z,4.10
2022-12-07T10:49:58.717Z,4.17
2022-12-07T10:50:58.701Z,4.17
2022-12-07T10:51:58.779Z,4.20
2022-12-07T10:52:58.680Z,4.25
2022-12-07T10:53:58.668Z,4.25
2022-12-07T10:54:58.687Z,4.25
2022-12-07T10:55:58.672Z,4.24
2022-12-07T10:56:58.669Z,4.18
2022-12-07T10:57:58.677Z,4.14
2022-12-07T10:58:58.631Z,4.11
2022-12-07T10:59:58.614Z,4.10
2022-12-07T11:00:58.746Z,4.07
2022-12-07T11:01:58.676Z,4.06
2022-12-07T11:02:58.579Z,4.07
2022-12-07T11:03:58.595Z,4.04
2022-12-07T11:04:58.541Z,4.06
2022-12-07T11:05:58.556Z,4.10
2022-12-07T11:06:58.572Z,4.11
2022-12-07T11:07:58.579Z,4.08
2022-12-07T11:08:58.510Z,4.11
2022-12-07T11:10:14.046Z,4.18
2022-12-07T11:10:58.587Z,4.17
2022-12-07T11:11:58.500Z,4.16
2022-12-07T11:12:58.471Z,4.14
2022-12-07T11:13:58.455Z,4.16
2022-12-07T11:14:58.462Z,4.17
2022-12-07T11:15:58.617Z,4.17
2022-12-07T11:16:58.424Z,4.13
2022-12-07T11:17:58.454Z,4.10
2022-12-07T11:18:58.406Z,4.07
2022-12-07T11:19:58.415Z,4.07
2022-12-07T11:20:58.391Z,4.06
2022-12-07T11:21:58.411Z,4.10
2022-12-07T11:22:58.359Z,4.10
2022-12-07T11:23:58.355Z,4.10
2022-12-07T11:24:58.364Z,4.14
2022-12-07T11:25:58.366Z,4.18
2022-12-07T11:26:58.314Z,4.25
2022-12-07T11:27:58.311Z,4.32
2022-12-07T11:28:58.307Z,4.32
2022-12-07T11:29:58.340Z,4.32
2022-12-07T11:30:58.301Z,4.29
2022-12-07T11:31:58.364Z,4.31
2022-12-07T11:32:58.265Z,4.34
2022-12-07T11:33:58.250Z,4.36
2022-12-07T11:35:04.285Z,4.38
2022-12-07T11:35:58.243Z,4.39
2022-12-07T11:36:58.257Z,4.36
2022-12-07T11:37:58.214Z,4.36
2022-12-07T11:38:58.258Z,4.35
2022-12-07T11:39:58.389Z,4.36
2022-12-07T11:40:59.005Z,4.36
2022-12-07T11:41:58.173Z,4.35
2022-12-07T11:42:58.158Z,4.39
2022-12-07T11:43:58.199Z,4.34
2022-12-07T11:44:58.185Z,4.32
2022-12-07T11:45:58.133Z,4.34
2022-12-07T11:46:58.253Z,4.39
2022-12-07T11:47:58.179Z,4.42
2022-12-07T11:48:58.099Z,4.42
2022-12-07T11:49:58.127Z,4.39
2022-12-07T11:50:58.097Z,4.36
2022-12-07T11:51:58.063Z,4.31
2022-12-07T11:52:58.052Z,4.28
2022-12-07T11:53:58.046Z,4.26
2022-12-07T11:54:58.060Z,4.29
2022-12-07T11:55:58.137Z,4.29
2022-12-07T11:56:58.036Z,4.26
2022-12-07T11:57:58.013Z,4.24
2022-12-07T11:58:57.992Z,4.25
2022-12-07T11:59:57.986Z,4.26
2022-12-07T12:00:57.997Z,4.25
2022-12-07T12:01:57.997Z,4.26
2022-12-07T12:02:57.997Z,4.26
2022-12-07T12:03:57.931Z,4.31
2022-12-07T12:04:57.957Z,4.28
2022-12-07T12:05:58.003Z,4.29
2022-12-07T12:06:57.981Z,4.35
2022-12-07T12:09:57.927Z,4.44
2022-12-07T12:10:57.896Z,4.46
2022-12-07T12:14:34.904Z,4.47
2022-12-07T12:14:43.392Z,4.94
2022-12-07T12:15:40.654Z,5.17
2022-12-07T12:16:40.626Z,5.26
2022-12-07T12:17:40.528Z,5.33
2022-12-07T12:18:41.181Z,5.42
2022-12-07T12:19:40.519Z,5.62
2022-12-07T12:20:40.617Z,5.81
2022-12-07T12:21:40.613Z,6.16
2022-12-07T12:22:40.534Z,6.27
2022-12-07T12:23:40.460Z,5.90
2022-12-07T12:24:40.464Z,5.59
2022-12-07T12:25:41.502Z,5.38
2022-12-07T12:26:40.429Z,5.19
2022-12-07T12:27:40.445Z,5.09
2022-12-07T12:28:44.065Z,4.94
2022-12-07T12:29:40.385Z,4.87
2022-12-07T12:30:40.427Z,4.87
2022-12-07T12:31:40.690Z,4.83
2022-12-07T12:32:40.361Z,4.79
2022-12-07T12:33:40.342Z,4.75
2022-12-07T12:34:44.092Z,4.83
2022-12-07T12:35:40.333Z,4.71
2022-12-07T12:36:40.401Z,4.71
2022-12-07T12:37:40.362Z,4.61
2022-12-07T12:38:40.286Z,4.57
2022-12-07T12:39:40.879Z,4.62
2022-12-07T12:40:43.165Z,4.61
2022-12-07T12:41:40.502Z,4.61
2022-12-07T12:42:40.546Z,4.64
2022-12-07T12:43:40.236Z,4.67
2022-12-07T12:44:40.227Z,4.65
2022-12-07T12:45:40.265Z,4.67
2022-12-07T12:46:42.914Z,4.61
2022-12-07T12:47:40.217Z,4.56
2022-12-07T12:48:40.282Z,4.51
2022-12-07T12:49:40.483Z,4.47
2022-12-07T12:50:40.354Z,4.47
2022-12-07T12:51:40.315Z,4.49
2022-12-07T12:52:41.636Z,4.47
2022-12-07T12:53:40.149Z,4.49
2022-12-07T12:54:40.125Z,4.50
2022-12-07T12:55:40.211Z,4.50
2022-12-07T12:56:40.310Z,4.53
2022-12-07T12:57:40.309Z,4.53
2022-12-07T12:58:40.214Z,4.57
2022-12-07T12:59:40.114Z,4.54
2022-12-07T13:00:40.117Z,4.59
2022-12-07T13:01:40.150Z,4.57
2022-12-07T13:02:40.151Z,4.54
2022-12-07T13:03:40.092Z,4.56
2022-12-07T13:04:40.094Z,4.53
2022-12-07T13:05:40.065Z,4.56
2022-12-07T13:06:40.016Z,4.53
2022-12-07T13:07:40.025Z,4.53
2022-12-07T13:08:40.013Z,4.54
2022-12-07T13:09:39.968Z,4.51
2022-12-07T13:10:39.982Z,4.54
2022-12-07T13:11:39.985Z,4.53
2022-12-07T13:12:39.966Z,4.53
2022-12-07T13:13:39.974Z,4.50
2022-12-07T13:14:39.914Z,4.51
2022-12-07T13:15:39.990Z,4.56
2022-12-07T13:16:39.940Z,4.51
2022-12-07T13:17:39.928Z,4.53
2022-12-07T13:18:39.878Z,4.56
2022-12-07T13:19:39.856Z,4.57
2022-12-07T13:20:39.878Z,4.59
2022-12-07T13:21:39.831Z,4.62
2022-12-07T13:22:39.830Z,4.64
2022-12-07T13:23:39.826Z,4.68